Time;durP1;ratioP1;P1;durP2;ratioP2;P2;SDS_P1;SDS_P2;PMS_P1;PMS_P2;Temp;Humidity;BMP_temperature;BMP_pressure;BME280_temperature;BME280_humidity;BME280_pressure;Samples;Min_cycle;Max_cycle;Signal;HPM_P1;HPM_P2
2023/01/03 00:00:45;;;;;;;6.35;2.95;;;;;;;6.85;95.42;102167.31;5055685;28;20090;-60
2023/01/03 00:03:16;;;;;;;3.60;2.00;;;;;;;6.80;95.46;102169.72;5057308;28;20302;-60
2023/01/03 00:05:45;;;;;;;6.60;2.17;;;;;;;6.74;95.36;102168.66;5057325;28;20451;-62
2023/01/03 00:08:11;;;;;;;5.20;2.50;;;;;;;6.65;95.54;102169.25;5035438;28;22045;-61
2023/01/03 00:10:37;;;;;;;5.53;2.50;;;;;;;6.62;95.76;102176.00;5061036;28;20045;-60
2023/01/03 00:13:02;;;;;;;4.78;2.60;;;;;;;6.64;96.29;102171.81;5040768;28;20064;-61
2023/01/03 00:15:28;;;;;;;4.18;2.40;;;;;;;6.66;96.72;102176.16;5057237;28;20047;-62
2023/01/03 00:17:54;;;;;;;5.45;3.05;;;;;;;6.71;96.71;102172.03;5059104;28;20040;-62
2023/01/03 00:20:20;;;;;;;4.93;2.80;;;;;;;6.75;96.74;102170.41;5055729;28;20060;-61
2023/01/03 00:22:47;;;;;;;7.97;3.15;;;;;;;6.75;96.46;102168.72;5056832;28;20123;-61
2023/01/03 00:25:12;;;;;;;6.82;3.45;;;;;;;6.78;96.72;102178.22;5057604;28;20028;-61
2023/01/03 00:27:37;;;;;;;6.00;3.08;;;;;;;6.83;96.85;102179.22;5055954;28;20109;-61
2023/01/03 00:30:03;;;;;;;4.38;3.08;;;;;;;6.90;96.92;102184.59;5056041;28;20032;-61
2023/01/03 00:32:29;;;;;;;5.93;3.25;;;;;;;6.97;96.98;102177.94;5056056;28;20482;-61
2023/01/03 00:34:54;;;;;;;5.63;3.00;;;;;;;7.03;96.69;102175.50;5057145;28;20028;-61
2023/01/03 00:37:20;;;;;;;3.42;2.55;;;;;;;7.10;96.54;102174.00;5054795;28;20044;-61
2023/01/03 00:39:45;;;;;;;5.95;3.17;;;;;;;7.17;96.38;102186.25;5054749;28;20083;-61
2023/01/03 00:42:11;;;;;;;3.13;2.47;;;;;;;7.22;96.57;102176.94;5055723;28;20044;-61
2023/01/03 00:44:36;;;;;;;4.28;2.70;;;;;;;7.27;96.42;102185.66;5058561;28;20036;-61
2023/01/03 00:47:02;;;;;;;3.72;2.25;;;;;;;7.32;96.41;102179.81;5056217;28;20504;-61
2023/01/03 00:49:27;;;;;;;3.60;2.47;;;;;;;7.35;96.30;102179.03;5055025;28;20047;-61
2023/01/03 00:51:53;;;;;;;3.85;2.53;;;;;;;7.39;96.20;102180.84;5058648;28;20040;-61
2023/01/03 00:54:20;;;;;;;4.28;2.30;;;;;;;7.42;96.02;102181.78;5057362;28;20036;-62
2023/01/03 00:56:47;;;;;;;5.38;2.92;;;;;;;7.46;95.90;102182.75;5056882;28;20043;-61
2023/01/03 00:59:14;;;;;;;5.43;2.10;;;;;;;7.49;95.80;102184.53;5033876;28;20065;-61
2023/01/03 01:01:43;;;;;;;5.03;2.15;;;;;;;7.52;95.54;102182.91;5036144;28;20127;-61
2023/01/03 01:04:27;;;;;;;5.30;2.53;;;;;;;7.57;95.29;102188.19;5037138;28;20848;-61
2023/01/03 01:06:59;;;;;;;5.63;2.30;;;;;;;7.60;95.21;102190.81;5032627;28;20126;-61
2023/01/03 01:09:28;;;;;;;3.63;2.45;;;;;;;7.62;94.93;102194.34;5032944;28;20045;-61
2023/01/03 01:11:54;;;;;;;4.05;2.70;;;;;;;7.64;94.69;102193.53;5035673;28;20536;-60
2023/01/03 01:14:22;;;;;;;5.22;2.45;;;;;;;7.66;94.24;102198.72;5033086;28;20036;-61
2023/01/03 01:16:50;;;;;;;4.90;2.35;;;;;;;7.68;94.24;102199.66;5046634;28;20036;-61
2023/01/03 01:19:17;;;;;;;4.80;2.22;;;;;;;7.69;93.90;102196.22;5045136;28;20510;-61
2023/01/03 01:21:42;;;;;;;6.63;2.25;;;;;;;7.71;94.24;102205.75;5031355;28;20072;-60
2023/01/03 01:24:08;;;;;;;3.22;1.80;;;;;;;7.72;94.23;102202.31;5038979;28;20033;-60
2023/01/03 01:26:33;;;;;;;4.57;1.80;;;;;;;7.73;93.71;102203.19;5036917;28;20482;-61
2023/01/03 01:28:58;;;;;;;3.38;1.85;;;;;;;7.74;93.74;102199.81;5033975;28;20152;-60
2023/01/03 01:31:25;;;;;;;3.97;2.33;;;;;;;7.74;93.63;102213.53;5034638;28;20044;-60
2023/01/03 01:33:53;;;;;;;4.20;2.22;;;;;;;7.74;93.43;102218.69;5035127;28;20039;-60
2023/01/03 01:36:21;;;;;;;3.00;2.03;;;;;;;7.75;93.35;102223.00;5034790;28;20033;-60
2023/01/03 01:38:51;;;;;;;4.65;1.98;;;;;;;7.76;93.22;102223.88;5033128;28;20029;-60
2023/01/03 01:44:36;;;;;;;5.70;1.77;;;;;;;7.76;92.96;102227.31;5035524;28;20068;-61
2023/01/03 01:46:47;;;;;;;4.88;2.63;;;;;;;7.79;93.53;102234.25;5039032;28;20083;-60
2023/01/03 01:49:24;;;;;;;3.65;1.90;;;;;;;7.79;93.05;102240.28;5036620;28;20124;-61
2023/01/03 01:51:50;;;;;;;4.22;2.08;;;;;;;7.82;92.72;102234.31;5035150;28;20044;-61
2023/01/03 01:54:16;;;;;;;4.78;1.80;;;;;;;7.82;93.28;102234.31;5037227;28;21155;-61
2023/01/03 01:56:46;;;;;;;3.67;1.80;;;;;;;7.83;93.49;102234.34;5035799;28;20776;-61
2023/01/03 01:59:13;;;;;;;4.50;1.83;;;;;;;7.84;93.03;102251.56;5055142;28;20044;-60
2023/01/03 02:01:41;;;;;;;3.80;1.90;;;;;;;7.85;92.94;102244.69;5054308;28;20043;-60
2023/01/03 02:04:17;;;;;;;2.28;1.90;;;;;;;7.85;93.20;102249.84;5037591;28;20037;-61
2023/01/03 02:06:42;;;;;;;5.60;1.73;;;;;;;7.85;93.37;102249.84;5054357;28;20036;-61
2023/01/03 02:09:08;;;;;;;2.80;1.92;;;;;;;7.86;93.49;102252.44;5054598;28;20090;-61
2023/01/03 02:14:46;;;;;;;3.90;1.50;;;;;;;7.85;93.37;102255.88;5055224;28;20619;-61
2023/01/03 02:17:19;;;;;;;;;;;;;;;7.84;92.78;102258.41;5058995;28;20072;-61
2023/01/03 02:20:23;;;;;;;6.53;2.13;;;;;;;7.85;92.87;102255.00;5053249;28;20039;-61
2023/01/03 02:23:03;;;;;;;4.95;3.05;;;;;;;7.84;93.15;102258.41;5054280;28;20051;-61
2023/01/03 02:25:51;;;;;;;5.68;2.33;;;;;;;7.80;92.83;102261.75;5055038;28;20114;-61
2023/01/03 02:28:25;;;;;;;6.00;2.10;;;;;;;7.75;92.56;102266.75;5051494;28;20489;-61
2023/01/03 02:31:00;;;;;;;3.08;2.25;;;;;;;7.71;93.20;102270.09;5053866;28;21948;-61
2023/01/03 02:33:44;;;;;;;3.67;2.10;;;;;;;7.68;92.87;102258.84;5053905;28;20048;-61
2023/01/03 02:36:32;;;;;;;6.60;1.85;;;;;;;7.64;93.32;102257.88;5047039;28;20555;-61
2023/01/03 02:39:11;;;;;;;3.50;1.73;;;;;;;7.60;93.80;102266.31;5048504;28;20032;-61
2023/01/03 02:41:51;;;;;;;5.85;1.75;;;;;;;7.59;93.60;102266.31;5056550;28;20523;-61
2023/01/03 02:44:39;;;;;;;3.05;1.70;;;;;;;7.56;93.34;102264.53;5052830;28;20417;-61
2023/01/03 02:47:09;;;;;;;3.78;1.60;;;;;;;7.57;93.69;102260.22;5055738;28;20060;-61
2023/01/03 02:49:41;;;;;;;3.03;1.73;;;;;;;7.56;93.35;102263.66;5055536;28;20663;-61
2023/01/03 02:52:13;;;;;;;4.18;2.05;;;;;;;7.56;93.45;102264.53;5053556;28;20430;-61
2023/01/03 02:54:52;;;;;;;4.47;2.20;;;;;;;7.56;94.13;102264.53;5056794;28;20060;-61
2023/01/03 02:57:22;;;;;;;2.88;2.03;;;;;;;7.57;94.30;102267.94;5054308;28;20822;-61
2023/01/03 02:59:54;;;;;;;5.22;2.20;;;;;;;7.57;94.22;102265.38;5053228;28;20185;-61
2023/01/03 03:02:24;;;;;;;6.43;1.70;;;;;;;7.57;94.36;102266.25;5036192;28;20410;-61
2023/01/03 03:04:55;;;;;;;6.07;2.38;;;;;;;7.54;94.36;102262.69;5055070;28;20037;-61
2023/01/03 03:07:23;;;;;;;2.15;1.50;;;;;;;7.49;94.28;102265.16;5034129;28;20091;-61
2023/01/03 03:15:27;;;;;;;3.65;1.95;;;;;;;7.50;94.40;102268.63;5055566;28;20586;-61
2023/01/03 03:17:58;;;;;;;5.25;1.83;;;;;;;7.53;93.98;102269.56;5036903;28;20894;-61
2023/01/03 03:26:06;;;;;;;4.75;1.65;;;;;;;7.59;93.02;102264.59;5038447;28;20079;-61
2023/01/03 03:28:36;;;;;;;5.57;1.50;;;;;;;7.56;93.42;102268.78;5036118;28;20064;-61
2023/01/03 03:31:21;;;;;;;2.70;1.33;;;;;;;7.50;93.73;102266.91;5038095;28;20041;-62
2023/01/03 03:33:53;;;;;;;4.65;1.77;;;;;;;7.48;93.62;102265.13;5050774;28;20037;-61
2023/01/03 03:36:31;;;;;;;5.03;1.20;;;;;;;7.49;93.58;102272.88;5034590;28;20098;-61
2023/01/03 03:38:58;;;;;;;4.75;2.50;;;;;;;7.50;93.32;102276.34;5035221;28;20084;-61
2023/01/03 03:47:23;;;;;;;5.43;1.30;;;;;;;7.55;93.03;102272.19;5036669;28;20086;-61
2023/01/03 03:49:52;;;;;;;2.97;1.40;;;;;;;7.59;92.58;102274.91;5015717;28;20044;-61
2023/01/03 03:52:24;;;;;;;2.95;1.80;;;;;;;7.59;92.09;102264.59;5051831;28;20408;-61
2023/01/03 03:54:57;;;;;;;10.90;3.55;;;;;;;7.59;92.36;102269.75;5056654;28;20597;-61
2023/01/03 03:57:30;;;;;;;8.52;2.53;;;;;;;7.58;92.13;102272.25;5050894;28;20566;-61
2023/01/03 03:59:59;;;;;;;5.03;1.85;;;;;;;7.53;92.00;102269.56;5035336;28;20037;-60
2023/01/03 04:02:27;;;;;;;6.72;2.35;;;;;;;7.49;92.03;102272.00;5054099;28;20051;-61
2023/01/03 04:04:57;;;;;;;3.60;2.38;;;;;;;7.44;92.07;102277.03;5037121;28;20052;-61
2023/01/03 04:07:23;;;;;;;3.65;1.98;;;;;;;7.42;92.79;102282.13;5035554;28;20549;-61
2023/01/03 04:09:49;;;;;;;3.25;1.65;;;;;;;7.43;92.66;102280.44;5041881;28;20051;-61
2023/01/03 04:12:14;;;;;;;4.47;1.95;;;;;;;7.41;92.52;102275.25;5049062;28;20045;-61
2023/01/03 04:14:39;;;;;;;5.10;1.80;;;;;;;7.41;92.76;102277.81;5035634;28;20043;-61
2023/01/03 04:17:05;;;;;;;4.30;1.80;;;;;;;7.43;92.84;102273.59;5026749;28;20041;-61
2023/01/03 04:19:30;;;;;;;3.55;1.73;;;;;;;7.45;92.75;102271.03;5035483;28;20175;-61
2023/01/03 04:21:55;;;;;;;5.05;1.85;;;;;;;7.44;92.50;102271.88;5032364;28;20099;-62
2023/01/03 04:24:21;;;;;;;4.47;1.88;;;;;;;7.47;92.47;102266.84;5033078;28;20102;-61
2023/01/03 04:26:47;;;;;;;3.78;2.03;;;;;;;7.49;92.41;102264.28;5033456;28;20060;-60
2023/01/03 04:29:12;;;;;;;2.72;2.25;;;;;;;7.48;92.30;102265.97;5029652;28;20800;-61
2023/01/03 04:31:37;;;;;;;2.78;1.60;;;;;;;7.51;92.27;102263.50;5048306;28;20068;-62
2023/01/03 04:34:03;;;;;;;5.40;2.10;;;;;;;7.53;92.92;102264.44;5042898;28;20038;-61
2023/01/03 04:36:28;;;;;;;4.38;1.85;;;;;;;7.55;93.04;102256.75;5037408;28;20051;-62
2023/01/03 04:38:54;;;;;;;8.23;1.90;;;;;;;7.55;93.26;102261.88;5037590;28;20503;-62
2023/01/03 04:41:19;;;;;;;3.50;1.95;;;;;;;7.56;93.17;102259.38;5039371;28;20039;-61
2023/01/03 04:44:06;;;;;;;6.05;1.65;;;;;;;7.58;92.82;102261.97;5035020;28;20037;-60
2023/01/03 04:46:34;;;;;;;3.67;1.70;;;;;;;7.59;93.12;102264.59;5038991;28;20523;-61
2023/01/03 04:49:00;;;;;;;3.92;1.60;;;;;;;7.61;93.10;102259.47;5034037;28;20038;-61
2023/01/03 04:51:27;;;;;;;6.57;2.00;;;;;;;7.62;93.35;102264.69;5036336;28;20033;-60
2023/01/03 04:53:53;;;;;;;2.95;2.15;;;;;;;7.65;93.15;102266.47;5036050;28;20144;-60
2023/01/03 04:56:33;;;;;;;4.43;1.90;;;;;;;7.65;93.01;102264.78;5037656;28;20033;-60
2023/01/03 04:59:00;;;;;;;3.55;1.70;;;;;;;7.66;93.42;102263.91;5034806;28;21197;-60
2023/01/03 05:01:26;;;;;;;2.85;1.40;;;;;;;7.67;93.21;102260.53;5029288;28;20064;-60
2023/01/03 05:03:57;;;;;;;5.43;1.73;;;;;;;7.68;93.65;102269.13;5035606;28;20209;-60
2023/01/03 05:06:22;;;;;;;3.28;1.50;;;;;;;7.69;93.68;102263.13;5036163;28;20052;-60
2023/01/03 05:08:49;;;;;;;3.47;1.52;;;;;;;7.69;93.20;102270.84;5037552;28;20041;-60
2023/01/03 05:11:15;;;;;;;2.78;1.90;;;;;;;7.68;92.80;102264.84;5034230;28;20025;-60
2023/01/03 05:13:40;;;;;;;2.15;1.52;;;;;;;7.70;93.12;102270.03;5035231;28;20933;-61
2023/01/03 05:16:09;;;;;;;4.13;1.60;;;;;;;7.70;93.27;102260.63;5036009;28;20033;-60
2023/01/03 05:18:35;;;;;;;3.35;1.52;;;;;;;7.71;93.01;102264.94;5036332;28;20466;-60
2023/01/03 05:26:45;;;;;;;3.53;1.57;;;;;;;7.75;93.20;102265.88;5037507;28;21469;-60
2023/01/03 05:29:14;;;;;;;3.55;1.80;;;;;;;7.77;92.90;102269.38;5055066;28;20285;-61
2023/01/03 05:31:39;;;;;;;2.63;1.77;;;;;;;7.77;92.67;102272.78;5055981;28;20128;-60
2023/01/03 05:34:04;;;;;;;2.85;1.95;;;;;;;7.77;92.49;102275.38;5053942;28;20593;-60
2023/01/03 05:36:30;;;;;;;2.22;1.60;;;;;;;7.76;92.44;102272.78;5055478;28;20036;-60
2023/01/03 05:38:55;;;;;;;4.97;2.10;;;;;;;7.74;92.38;102275.31;5051988;28;20029;-60
2023/01/03 05:44:05;;;;;;;5.47;2.72;;;;;;;7.67;92.32;102269.94;5056418;28;20086;-60
2023/01/03 05:46:30;;;;;;;4.40;2.30;;;;;;;7.62;92.28;102274.97;5057706;28;20044;-60
2023/01/03 05:48:56;;;;;;;6.25;2.22;;;;;;;7.55;92.63;102272.19;5057346;28;20086;-60
2023/01/03 05:51:21;;;;;;;4.93;2.17;;;;;;;7.42;92.87;102276.09;5055892;28;20493;-60
2023/01/03 05:53:47;;;;;;;4.75;1.83;;;;;;;7.28;92.78;102277.41;5056588;28;20806;-60
2023/01/03 05:56:12;;;;;;;3.80;1.85;;;;;;;7.14;93.04;102277.00;5058122;28;20121;-60
2023/01/03 05:58:37;;;;;;;4.05;1.73;;;;;;;7.01;93.52;102282.56;5051747;28;20159;-60
2023/01/03 06:01:10;;;;;;;3.55;1.90;;;;;;;6.89;93.99;102282.19;5037597;28;20040;-60
2023/01/03 06:03:36;;;;;;;12.02;3.33;;;;;;;6.79;94.12;102281.03;5054390;28;20041;-60
2023/01/03 06:06:03;;;;;;;3.60;2.00;;;;;;;6.71;94.17;102279.06;5054698;28;20035;-61
2023/01/03 06:08:29;;;;;;;4.57;2.13;;;;;;;6.62;94.31;102279.66;5037479;28;20097;-60
2023/01/03 06:10:54;;;;;;;3.10;1.90;;;;;;;6.55;95.15;102282.88;5056368;28;20119;-60
2023/01/03 06:13:20;;;;;;;3.38;1.98;;;;;;;6.49;95.00;102286.94;5056296;28;20044;-61
2023/01/03 06:17:53;;;;;;;2.10;1.80;;;;;;;6.44;95.03;102294.47;5055704;28;20154;-60
2023/01/03 06:18:33;;;;;;;6.22;2.38;;;;;;;6.38;95.54;102288.28;5054156;28;20040;-60
2023/01/03 06:21:01;;;;;;;3.80;2.10;;;;;;;6.29;95.38;102287.13;5053153;28;20060;-60
2023/01/03 06:23:27;;;;;;;4.32;2.75;;;;;;;6.28;95.76;102287.09;5056253;28;20036;-60
2023/01/03 06:25:52;;;;;;;6.05;2.80;;;;;;;6.22;96.27;102284.31;5054112;28;20041;-61
2023/01/03 06:28:18;;;;;;;3.72;1.98;;;;;;;6.15;96.17;102287.50;5053633;28;20071;-60
2023/01/03 06:30:43;;;;;;;4.80;2.80;;;;;;;6.10;96.44;102289.91;5053927;28;20090;-61
2023/01/03 06:33:10;;;;;;;6.53;2.80;;;;;;;6.06;96.12;102289.75;5036781;28;20037;-61
2023/01/03 06:35:37;;;;;;;3.45;2.15;;;;;;;6.02;96.08;102295.63;5055899;28;20697;-60
2023/01/03 06:38:03;;;;;;;2.53;2.15;;;;;;;5.98;96.39;102289.50;5055031;28;20034;-60
2023/01/03 06:40:28;;;;;;;4.20;2.60;;;;;;;5.96;96.45;102295.41;5056956;28;20033;-60
2023/01/03 06:42:53;;;;;;;6.57;2.53;;;;;;;5.93;96.63;102298.75;5053717;28;20124;-61
2023/01/03 06:53:36;;;;;;;14.50;9.20;;;;;;;6.05;97.57;102300.84;5053544;28;20044;-62
2023/01/03 06:56:02;;;;;;;16.42;10.75;;;;;;;6.09;97.71;102293.31;5054727;28;20656;-63
2023/01/03 06:58:27;;;;;;;20.35;12.13;;;;;;;6.14;97.51;102291.75;5054115;28;20044;-62
2023/01/03 07:00:54;;;;;;;13.50;8.30;;;;;;;6.19;97.50;102295.38;5051907;28;20064;-62
2023/01/03 07:03:20;;;;;;;8.70;5.55;;;;;;;6.22;97.33;102294.59;5054810;28;20048;-62
2023/01/03 07:05:46;;;;;;;11.68;3.40;;;;;;;6.24;96.32;102300.63;5053909;28;20043;-62
2023/01/03 07:08:11;;;;;;;3.78;2.72;;;;;;;6.24;96.36;102304.09;5034861;28;20049;-60
2023/01/03 07:10:36;;;;;;;6.20;3.30;;;;;;;6.25;95.82;102305.84;5033177;28;20117;-60
2023/01/03 07:15:46;;;;;;;8.65;3.10;;;;;;;6.21;95.49;102305.66;5034725;28;20052;-60
2023/01/03 07:18:12;;;;;;;8.65;3.30;;;;;;;6.20;94.95;102309.94;5033601;28;20041;-60
2023/01/03 07:20:43;;;;;;;5.82;2.83;;;;;;;6.21;95.50;102306.56;5030522;28;20477;-60
2023/01/03 07:23:10;;;;;;;7.50;3.58;;;;;;;6.23;95.49;102315.16;5053537;28;20159;-61
2023/01/03 07:25:40;;;;;;;6.88;3.15;;;;;;;6.26;95.03;102311.81;5038802;28;20029;-61
2023/01/03 07:28:09;;;;;;;4.53;3.10;;;;;;;6.24;94.88;102314.34;5034758;28;20071;-61
2023/01/03 07:30:40;;;;;;;8.13;3.85;;;;;;;6.24;94.87;102321.19;5034701;28;20033;-60
2023/01/03 07:33:10;;;;;;;4.68;2.95;;;;;;;6.21;95.04;102332.22;5037579;28;20032;-62
2023/01/03 07:35:36;;;;;;;5.55;3.67;;;;;;;6.24;95.56;102332.34;5054893;28;20036;-61
2023/01/03 07:38:02;;;;;;;4.65;3.20;;;;;;;6.26;94.81;102333.25;5031978;28;20536;-62
2023/01/03 07:40:28;;;;;;;8.35;3.67;;;;;;;6.31;95.13;102338.56;5036427;28;20414;-62
2023/01/03 07:45:40;;;;;;;3.92;2.88;;;;;;;6.33;94.74;102331.75;5033904;28;20040;-62
2023/01/03 07:48:05;;;;;;;8.35;3.33;;;;;;;6.28;94.19;102334.19;5037914;28;20112;-61
2023/01/03 07:50:30;;;;;;;6.43;3.53;;;;;;;6.29;94.09;102342.75;5036121;28;20043;-62
2023/01/03 07:52:56;;;;;;;5.82;3.30;;;;;;;6.32;94.26;102338.59;5033597;28;20159;-62
2023/01/03 07:55:21;;;;;;;8.30;3.85;;;;;;;6.34;94.18;102339.53;5034116;28;20135;-62
2023/01/03 07:57:47;;;;;;;5.93;3.20;;;;;;;6.37;94.21;102341.34;5037242;28;20496;-62
2023/01/03 08:00:13;;;;;;;6.72;3.40;;;;;;;6.37;93.61;102341.34;5037757;28;20083;-62
2023/01/03 08:02:38;;;;;;;7.28;3.63;;;;;;;6.38;93.17;102337.91;5038065;28;20037;-62
2023/01/03 08:05:04;;;;;;;5.30;2.85;;;;;;;6.40;93.27;102341.44;5054852;28;20032;-61
2023/01/03 08:07:29;;;;;;;6.53;4.00;;;;;;;6.44;93.39;102343.25;5058019;28;20037;-62
2023/01/03 08:15:22;;;;;;;5.68;3.47;;;;;;;6.72;92.26;102338.22;5032888;28;20087;-61
2023/01/03 08:17:47;;;;;;;5.55;4.13;;;;;;;6.76;91.94;102341.78;5034715;28;20738;-62
2023/01/03 08:20:13;;;;;;;8.70;4.32;;;;;;;6.79;91.66;102332.44;5032741;28;20038;-61
2023/01/03 08:22:38;;;;;;;8.25;3.83;;;;;;;6.80;91.66;102341.91;5039122;28;20090;-62
2023/01/03 08:25:04;;;;;;;7.70;4.28;;;;;;;6.85;91.72;102340.34;5031608;28;20045;-62
2023/01/03 08:27:29;;;;;;;6.82;3.95;;;;;;;6.95;91.67;102341.50;5051890;28;20623;-62
2023/01/03 08:29:54;;;;;;;10.55;4.53;;;;;;;7.06;91.23;102347.84;5041728;28;20441;-62
2023/01/03 08:32:20;;;;;;;7.18;4.05;;;;;;;7.15;90.69;102334.44;5058846;28;20024;-62
2023/01/03 08:34:47;;;;;;;6.65;4.00;;;;;;;7.23;90.29;102344.16;5040894;28;20121;-61
2023/01/03 08:37:15;;;;;;;8.18;4.18;;;;;;;7.31;90.11;102340.09;5049974;28;20036;-61
2023/01/03 08:39:46;;;;;;;9.90;3.60;;;;;;;7.43;89.43;102332.75;5048356;28;20044;-61
2023/01/03 08:42:13;;;;;;;8.43;3.92;;;;;;;7.56;88.63;102341.72;5034276;28;20075;-61
2023/01/03 08:44:40;;;;;;;6.15;3.53;;;;;;;7.66;88.99;102346.28;5034008;28;20060;-61
2023/01/03 08:47:08;;;;;;;5.28;3.60;;;;;;;7.75;89.89;102350.81;5037247;28;20032;-58
2023/01/03 08:49:33;;;;;;;6.47;3.42;;;;;;;7.79;88.60;102348.38;5036828;28;20033;-58
2023/01/03 08:51:58;;;;;;;9.40;4.18;;;;;;;7.85;88.33;102357.97;5036406;28;20639;-58
2023/01/03 08:54:24;;;;;;;5.20;3.13;;;;;;;7.87;88.22;102353.72;5038642;28;20588;-58
2023/01/03 08:56:49;;;;;;;6.65;3.47;;;;;;;7.86;88.30;102352.00;5037527;28;20025;-58
2023/01/03 08:59:16;;;;;;;8.18;3.83;;;;;;;7.82;88.36;102348.47;5036734;28;20045;-59
2023/01/03 09:01:41;;;;;;;15.25;3.50;;;;;;;7.79;87.60;102356.09;5035605;28;20048;-59
2023/01/03 09:04:07;;;;;;;5.93;3.40;;;;;;;7.77;87.34;102352.59;5033161;28;20599;-59
2023/01/03 09:06:33;;;;;;;6.38;3.33;;;;;;;7.76;87.93;102350.88;5038561;28;20044;-59
2023/01/03 09:09:03;;;;;;;9.68;3.55;;;;;;;7.85;87.56;102350.25;5033665;28;20041;-59
2023/01/03 09:11:28;;;;;;;7.85;3.75;;;;;;;8.00;87.68;102354.13;5035093;28;20747;-58
2023/01/03 09:13:54;;;;;;;5.28;3.72;;;;;;;8.14;86.95;102346.75;5037397;28;20121;-58
2023/01/03 09:16:19;;;;;;;7.97;3.85;;;;;;;8.26;86.70;102348.78;5036861;28;20494;-58
2023/01/03 09:18:45;;;;;;;7.55;3.80;;;;;;;8.34;87.21;102348.16;5037723;28;20049;-58
2023/01/03 09:21:10;;;;;;;14.27;3.38;;;;;;;8.46;86.68;102342.44;5040872;28;20033;-58
2023/01/03 09:23:36;;;;;;;7.55;3.47;;;;;;;8.60;86.53;102346.25;5056523;28;20028;-58
2023/01/03 09:26:02;;;;;;;7.75;3.20;;;;;;;8.76;86.09;102343.19;5037337;28;20342;-58
2023/01/03 09:28:28;;;;;;;4.53;3.40;;;;;;;8.93;85.54;102343.63;5047891;28;20465;-59
2023/01/03 09:30:53;;;;;;;7.95;2.97;;;;;;;9.07;84.55;102356.00;5043502;28;20037;-58
2023/01/03 09:33:19;;;;;;;5.43;2.60;;;;;;;9.24;83.77;102352.91;5038065;28;20045;-58
2023/01/03 09:35:44;;;;;;;6.55;2.72;;;;;;;9.37;83.01;102349.78;5033721;28;20491;-58
2023/01/03 09:38:10;;;;;;;6.88;2.30;;;;;;;9.47;81.55;102342.25;5031596;28;20037;-58
2023/01/03 09:40:39;;;;;;;8.35;2.40;;;;;;;9.55;82.13;102345.00;5035524;28;20029;-58
2023/01/03 09:43:14;;;;;;;4.70;1.95;;;;;;;9.63;81.79;102346.06;5035004;28;20045;-58
2023/01/03 09:45:42;;;;;;;7.85;2.33;;;;;;;9.68;81.13;102347.00;5030041;28;20124;-59
2023/01/03 09:48:14;;;;;;;5.43;1.95;;;;;;;9.70;80.80;102347.06;5034009;28;20094;-60
2023/01/03 09:50:41;;;;;;;5.82;1.92;;;;;;;9.74;80.75;102349.72;5036433;28;20036;-59
2023/01/03 10:04:41;;;;;;;9.38;2.10;;;;;;;9.92;79.40;102328.53;5030693;28;20593;-58
2023/01/03 10:07:13;;;;;;;5.53;2.10;;;;;;;9.89;80.24;102336.22;5033557;28;20074;-58
2023/01/03 10:10:07;;;;;;;6.10;1.70;;;;;;;9.88;79.75;102337.94;5034064;28;20041;-59
2023/01/03 10:12:47;;;;;;;3.45;1.85;;;;;;;9.87;79.40;102343.97;5032231;28;20466;-59
2023/01/03 10:15:17;;;;;;;6.68;1.52;;;;;;;9.87;79.48;102332.75;5034419;28;20097;-58
2023/01/03 10:18:25;;;;;;;4.85;1.75;;;;;;;9.88;79.48;102342.25;5035702;28;20079;-58
2023/01/03 10:20:56;;;;;;;3.85;1.80;;;;;;;9.87;79.63;102333.63;5033443;28;20106;-58
2023/01/03 10:23:22;;;;;;;4.50;1.60;;;;;;;9.89;79.72;102326.78;5049640;28;20048;-58
2023/01/03 10:25:47;;;;;;;4.43;1.30;;;;;;;9.90;79.54;102328.53;5054926;28;20124;-58
2023/01/03 10:28:19;;;;;;;13.65;3.25;;;;;;;9.92;79.17;102320.78;5048758;28;20039;-58
2023/01/03 10:30:53;;;;;;;4.85;1.60;;;;;;;9.99;79.04;102317.50;5055220;28;20107;-58
2023/01/03 10:33:38;;;;;;;3.90;1.50;;;;;;;10.04;78.97;102326.19;5055617;28;20118;-58
2023/01/03 10:36:04;;;;;;;3.75;1.50;;;;;;;10.08;78.91;102315.97;5050997;28;20040;-58
2023/01/03 10:38:30;;;;;;;4.43;1.50;;;;;;;10.14;78.48;102331.59;5055465;28;20040;-58
2023/01/03 10:40:58;;;;;;;6.30;2.08;;;;;;;10.18;78.23;102327.31;5051464;28;20537;-58
2023/01/03 10:43:39;;;;;;;4.90;1.52;;;;;;;10.18;78.86;102327.31;5054773;28;20052;-58
2023/01/03 10:46:13;;;;;;;4.18;2.00;;;;;;;10.18;78.01;102335.06;5054085;28;20075;-58
2023/01/03 10:48:46;;;;;;;6.43;1.67;;;;;;;10.18;77.20;102323.03;5055835;28;20044;-58
2023/01/03 10:51:31;;;;;;;2.08;1.10;;;;;;;10.20;76.85;102325.66;5054439;28;20029;-58
2023/01/03 10:54:00;;;;;;;4.55;1.58;;;;;;;10.21;77.57;102320.50;5055930;28;20035;-58
2023/01/03 10:56:29;;;;;;;5.05;1.70;;;;;;;10.24;76.76;102317.09;5052892;28;20131;-58
2023/01/03 10:59:20;;;;;;;3.47;1.40;;;;;;;10.29;76.28;102317.19;5053937;28;20043;-58
2023/01/03 11:02:07;;;;;;;5.05;1.13;;;;;;;10.32;75.99;102310.38;5041929;28;20516;-59
2023/01/03 11:04:35;;;;;;;6.07;1.10;;;;;;;10.31;77.12;102316.38;5054598;28;20044;-58
2023/01/03 11:07:02;;;;;;;4.72;1.42;;;;;;;10.35;76.99;102309.53;5048766;28;20381;-58
2023/01/03 11:09:34;;;;;;;2.35;1.23;;;;;;;10.37;76.38;102305.25;5051875;28;20668;-58
2023/01/03 11:12:10;;;;;;;2.53;1.25;;;;;;;10.43;75.61;102305.38;5054561;28;20079;-58
2023/01/03 11:14:35;;;;;;;4.38;1.67;;;;;;;10.40;75.13;102295.84;5054779;28;20762;-58
2023/01/03 11:17:04;;;;;;;3.53;1.30;;;;;;;10.36;75.01;102300.91;5054595;28;20048;-58
2023/01/03 11:19:31;;;;;;;3.72;1.10;;;;;;;10.29;75.56;102305.13;5051783;28;20044;-59
2023/01/03 11:22:08;;;;;;;2.95;1.00;;;;;;;10.29;74.71;102299.97;5054336;28;20024;-58
2023/01/03 11:24:42;;;;;;;3.22;1.02;;;;;;;10.28;74.97;102302.50;5054172;28;20073;-58
2023/01/03 11:27:19;;;;;;;3.65;0.95;;;;;;;10.32;73.74;102302.59;5050211;28;20170;-58
2023/01/03 11:30:29;;;;;;;3.10;1.00;;;;;;;10.30;74.68;102306.00;5056369;28;20531;-58
2023/01/03 11:33:21;;;;;;;5.15;0.95;;;;;;;10.38;73.78;102296.66;4990217;28;20040;-58
2023/01/03 11:36:23;;;;;;;3.22;1.00;;;;;;;10.42;74.38;102296.72;5051799;28;20436;-58
2023/01/03 11:39:08;;;;;;;2.63;1.10;;;;;;;10.52;73.44;102280.53;5053677;28;20075;-58
2023/01/03 11:41:59;;;;;;;2.35;0.70;;;;;;;10.66;72.40;102276.44;5056867;28;20044;-57
2023/01/03 11:44:50;;;;;;;2.75;1.00;;;;;;;10.79;72.07;102272.34;5060749;28;20045;-58
2023/01/03 11:47:46;;;;;;;8.52;1.20;;;;;;;10.95;72.43;102265.66;5039031;28;20036;-58
2023/01/03 11:50:23;;;;;;;2.75;0.90;;;;;;;11.07;70.50;102261.50;5047795;28;20072;-59
2023/01/03 11:53:23;;;;;;;3.67;0.80;;;;;;;11.11;70.42;102255.53;5039899;28;20110;-60
2023/01/03 11:56:05;;;;;;;1.63;0.73;;;;;;;11.12;70.77;102249.53;5026508;28;20128;-61
2023/01/03 11:58:37;;;;;;;8.80;0.98;;;;;;;11.11;70.65;102240.00;5038026;28;20045;-61
2023/01/03 12:01:33;;;;;;;3.63;0.85;;;;;;;11.14;69.72;102246.94;5036265;28;20025;-65
2023/01/03 12:04:07;;;;;;;2.63;0.80;;;;;;;11.14;69.51;102241.75;5039557;28;20390;-65
2023/01/03 12:07:08;;;;;;;4.13;0.95;;;;;;;11.14;69.86;102241.75;5037566;28;20563;-65
2023/01/03 12:10:00;;;;;;;1.35;0.80;;;;;;;11.13;69.48;102229.66;5031766;28;20126;-65
2023/01/03 12:13:04;;;;;;;6.13;0.82;;;;;;;11.14;69.19;102229.69;5042439;28;20051;-65
2023/01/03 12:15:57;;;;;;;2.40;0.68;;;;;;;11.18;69.39;102228.03;5011450;28;20068;-65
2023/01/03 12:18:38;;;;;;;4.15;0.73;;;;;;;11.19;69.00;102224.56;5029505;28;20125;-65
2023/01/03 12:21:34;;;;;;;3.80;0.80;;;;;;;11.17;70.06;102236.63;5048167;28;20040;-66
2023/01/03 12:24:17;;;;;;;5.25;0.80;;;;;;;11.16;69.62;102232.28;5049376;28;20153;-66
2023/01/03 12:26:59;;;;;;;8.38;0.98;;;;;;;11.19;69.14;102214.22;5040329;28;20098;-65
2023/01/03 12:29:42;;;;;;;1.70;0.68;;;;;;;11.25;68.23;102214.28;5050165;28;20036;-65
2023/01/03 12:32:13;;;;;;;2.78;0.77;;;;;;;11.27;68.19;102199.66;5030273;28;20103;-66
2023/01/03 12:34:51;;;;;;;2.90;0.70;;;;;;;11.34;68.03;102199.75;5035016;28;20033;-65
2023/01/03 12:37:23;;;;;;;3.08;0.65;;;;;;;11.43;67.84;102205.84;5038646;28;20040;-65
2023/01/03 12:39:56;;;;;;;0.93;0.55;;;;;;;11.57;67.59;102202.63;5057007;28;20025;-65
2023/01/03 12:42:24;;;;;;;2.50;0.60;;;;;;;11.70;66.88;102191.53;5042317;28;20048;-65
2023/01/03 12:44:57;;;;;;;1.35;0.68;;;;;;;11.85;66.70;102181.31;5055633;28;20044;-65
2023/01/03 12:47:54;;;;;;;4.68;1.02;;;;;;;11.90;66.91;102187.38;5055199;28;20405;-65
2023/01/03 12:50:26;;;;;;;3.38;1.05;;;;;;;11.80;66.72;102184.72;5056500;28;20048;-65